sensor_id;sensor_type;location;lat;lon;timestamp;P1;durP1;ratioP1;P2;durP2;ratioP2
21354;SDS011;10835;50.148;19.760;2023-01-01T00:01:52;6.45;;;4.07;;
21354;SDS011;10835;50.148;19.760;2023-01-01T00:04:20;8.25;;;4.38;;
21354;SDS011;10835;50.148;19.760;2023-01-01T00:06:50;9.32;;;5.28;;
21354;SDS011;10835;50.148;19.760;2023-01-01T00:09:19;8.25;;;4.20;;
21354;SDS011;10835;50.148;19.760;2023-01-01T00:12:05;7.40;;;4.22;;
21354;SDS011;10835;50.148;19.760;2023-01-01T00:14:33;8.63;;;4.70;;
21354;SDS011;10835;50.148;19.760;2023-01-01T00:17:01;9.68;;;5.30;;
21354;SDS011;10835;50.148;19.760;2023-01-01T00:19:29;8.38;;;5.18;;
21354;SDS011;10835;50.148;19.760;2023-01-01T00:21:57;8.25;;;5.15;;
21354;SDS011;10835;50.148;19.760;2023-01-01T00:24:36;15.95;;;7.80;;
21354;SDS011;10835;50.148;19.760;2023-01-01T00:27:04;10.27;;;6.50;;
21354;SDS011;10835;50.148;19.760;2023-01-01T00:29:32;8.85;;;5.07;;
21354;SDS011;10835;50.148;19.760;2023-01-01T00:32:00;8.80;;;4.97;;
21354;SDS011;10835;50.148;19.760;2023-01-01T00:34:30;7.55;;;4.80;;
21354;SDS011;10835;50.148;19.760;2023-01-01T00:36:58;7.25;;;4.68;;
21354;SDS011;10835;50.148;19.760;2023-01-01T00:39:26;7.95;;;5.22;;
21354;SDS011;10835;50.148;19.760;2023-01-01T00:41:56;6.57;;;4.63;;
21354;SDS011;10835;50.148;19.760;2023-01-01T00:44:24;9.13;;;5.07;;
21354;SDS011;10835;50.148;19.760;2023-01-01T00:46:52;7.78;;;4.97;;
21354;SDS011;10835;50.148;19.760;2023-01-01T00:49:20;7.65;;;4.57;;
21354;SDS011;10835;50.148;19.760;2023-01-01T00:51:48;8.70;;;4.72;;
21354;SDS011;10835;50.148;19.760;2023-01-01T00:54:16;8.15;;;4.78;;
21354;SDS011;10835;50.148;19.760;2023-01-01T00:56:44;7.60;;;4.57;;
21354;SDS011;10835;50.148;19.760;2023-01-01T00:59:13;7.85;;;4.35;;
21354;SDS011;10835;50.148;19.760;2023-01-01T01:01:41;6.80;;;4.00;;
21354;SDS011;10835;50.148;19.760;2023-01-01T01:04:09;7.45;;;4.35;;
21354;SDS011;10835;50.148;19.760;2023-01-01T01:06:37;9.05;;;4.72;;
21354;SDS011;10835;50.148;19.760;2023-01-01T01:09:05;8.80;;;4.68;;
21354;SDS011;10835;50.148;19.760;2023-01-01T01:11:42;7.85;;;4.47;;
21354;SDS011;10835;50.148;19.760;2023-01-01T01:14:10;7.70;;;4.15;;
21354;SDS011;10835;50.148;19.760;2023-01-01T01:16:41;8.10;;;4.80;;
21354;SDS011;10835;50.148;19.760;2023-01-01T01:19:09;9.10;;;5.40;;
21354;SDS011;10835;50.148;19.760;2023-01-01T01:21:43;5.60;;;3.47;;
21354;SDS011;10835;50.148;19.760;2023-01-01T01:24:13;7.80;;;4.43;;
21354;SDS011;10835;50.148;19.760;2023-01-01T01:26:40;11.02;;;5.90;;
21354;SDS011;10835;50.148;19.760;2023-01-01T01:29:08;10.85;;;6.50;;
21354;SDS011;10835;50.148;19.760;2023-01-01T01:31:36;11.43;;;5.88;;
21354;SDS011;10835;50.148;19.760;2023-01-01T01:34:06;10.05;;;6.18;;
21354;SDS011;10835;50.148;19.760;2023-01-01T01:36:41;14.35;;;6.82;;
21354;SDS011;10835;50.148;19.760;2023-01-01T01:39:09;13.95;;;6.50;;
21354;SDS011;10835;50.148;19.760;2023-01-01T01:41:37;13.00;;;6.35;;
21354;SDS011;10835;50.148;19.760;2023-01-01T01:44:42;15.63;;;7.85;;
21354;SDS011;10835;50.148;19.760;2023-01-01T01:47:13;25.92;;;12.10;;
21354;SDS011;10835;50.148;19.760;2023-01-01T01:49:43;18.45;;;9.65;;
21354;SDS011;10835;50.148;19.760;2023-01-01T01:52:12;22.38;;;11.75;;
21354;SDS011;10835;50.148;19.760;2023-01-01T01:54:41;39.38;;;14.35;;
21354;SDS011;10835;50.148;19.760;2023-01-01T01:57:09;24.30;;;9.73;;
21354;SDS011;10835;50.148;19.760;2023-01-01T01:59:39;21.08;;;8.32;;
21354;SDS011;10835;50.148;19.760;2023-01-01T02:02:17;12.90;;;6.05;;
21354;SDS011;10835;50.148;19.760;2023-01-01T02:04:51;14.38;;;5.93;;
21354;SDS011;10835;50.148;19.760;2023-01-01T02:07:20;13.68;;;5.78;;
21354;SDS011;10835;50.148;19.760;2023-01-01T02:09:50;19.08;;;7.95;;
21354;SDS011;10835;50.148;19.760;2023-01-01T02:12:18;23.15;;;9.80;;
21354;SDS011;10835;50.148;19.760;2023-01-01T02:14:46;38.13;;;16.70;;
21354;SDS011;10835;50.148;19.760;2023-01-01T02:17:16;25.90;;;11.50;;
21354;SDS011;10835;50.148;19.760;2023-01-01T02:19:54;38.20;;;11.63;;
21354;SDS011;10835;50.148;19.760;2023-01-01T02:22:32;28.45;;;10.20;;
21354;SDS011;10835;50.148;19.760;2023-01-01T02:25:17;36.72;;;13.30;;
21354;SDS011;10835;50.148;19.760;2023-01-01T02:27:54;39.72;;;13.50;;
21354;SDS011;10835;50.148;19.760;2023-01-01T02:30:33;19.80;;;8.60;;
21354;SDS011;10835;50.148;19.760;2023-01-01T02:33:03;25.60;;;9.98;;
21354;SDS011;10835;50.148;19.760;2023-01-01T02:35:35;26.95;;;12.73;;
21354;SDS011;10835;50.148;19.760;2023-01-01T02:38:08;29.27;;;14.10;;
21354;SDS011;10835;50.148;19.760;2023-01-01T02:40:41;24.48;;;12.60;;
21354;SDS011;10835;50.148;19.760;2023-01-01T02:43:12;30.05;;;13.63;;
21354;SDS011;10835;50.148;19.760;2023-01-01T02:45:48;21.35;;;9.98;;
21354;SDS011;10835;50.148;19.760;2023-01-01T02:48:37;26.40;;;10.25;;
21354;SDS011;10835;50.148;19.760;2023-01-01T02:51:10;22.00;;;8.85;;
21354;SDS011;10835;50.148;19.760;2023-01-01T02:53:45;18.98;;;8.15;;
21354;SDS011;10835;50.148;19.760;2023-01-01T02:56:21;14.13;;;5.93;;
21354;SDS011;10835;50.148;19.760;2023-01-01T02:58:56;18.45;;;7.55;;
21354;SDS011;10835;50.148;19.760;2023-01-01T03:01:51;19.05;;;9.00;;
21354;SDS011;10835;50.148;19.760;2023-01-01T03:04:30;24.52;;;10.20;;
21354;SDS011;10835;50.148;19.760;2023-01-01T03:07:05;22.52;;;8.90;;
21354;SDS011;10835;50.148;19.760;2023-01-01T03:09:41;42.30;;;14.77;;
21354;SDS011;10835;50.148;19.760;2023-01-01T03:12:15;27.30;;;10.23;;
21354;SDS011;10835;50.148;19.760;2023-01-01T03:14:51;36.38;;;15.60;;
21354;SDS011;10835;50.148;19.760;2023-01-01T03:17:25;34.53;;;13.13;;
21354;SDS011;10835;50.148;19.760;2023-01-01T03:20:00;36.80;;;13.15;;
21354;SDS011;10835;50.148;19.760;2023-01-01T03:22:33;24.98;;;9.73;;
21354;SDS011;10835;50.148;19.760;2023-01-01T03:25:05;17.70;;;8.10;;
21354;SDS011;10835;50.148;19.760;2023-01-01T03:27:36;20.13;;;7.55;;
21354;SDS011;10835;50.148;19.760;2023-01-01T03:30:08;19.38;;;7.95;;
21354;SDS011;10835;50.148;19.760;2023-01-01T03:32:41;14.57;;;6.72;;
21354;SDS011;10835;50.148;19.760;2023-01-01T03:35:34;9.45;;;4.80;;
21354;SDS011;10835;50.148;19.760;2023-01-01T03:38:07;10.85;;;4.88;;
21354;SDS011;10835;50.148;19.760;2023-01-01T03:40:37;8.50;;;3.17;;
21354;SDS011;10835;50.148;19.760;2023-01-01T03:43:07;6.38;;;3.33;;
21354;SDS011;10835;50.148;19.760;2023-01-01T03:45:39;3.70;;;2.25;;
21354;SDS011;10835;50.148;19.760;2023-01-01T03:48:12;4.13;;;2.30;;
21354;SDS011;10835;50.148;19.760;2023-01-01T03:50:43;5.97;;;2.65;;
21354;SDS011;10835;50.148;19.760;2023-01-01T03:53:24;3.75;;;2.30;;
21354;SDS011;10835;50.148;19.760;2023-01-01T03:56:01;2.80;;;1.90;;
21354;SDS011;10835;50.148;19.760;2023-01-01T03:58:38;4.53;;;2.53;;
21354;SDS011;10835;50.148;19.760;2023-01-01T04:01:13;9.45;;;4.63;;
21354;SDS011;10835;50.148;19.760;2023-01-01T04:03:46;7.65;;;4.05;;
21354;SDS011;10835;50.148;19.760;2023-01-01T04:06:16;6.00;;;3.85;;
21354;SDS011;10835;50.148;19.760;2023-01-01T04:08:44;5.78;;;3.63;;
21354;SDS011;10835;50.148;19.760;2023-01-01T04:11:14;5.97;;;3.20;;
21354;SDS011;10835;50.148;19.760;2023-01-01T04:14:03;2.63;;;2.22;;
21354;SDS011;10835;50.148;19.760;2023-01-01T04:16:32;4.63;;;2.00;;
21354;SDS011;10835;50.148;19.760;2023-01-01T04:19:01;3.90;;;2.58;;
21354;SDS011;10835;50.148;19.760;2023-01-01T04:21:32;3.03;;;2.50;;
21354;SDS011;10835;50.148;19.760;2023-01-01T04:24:00;3.03;;;2.05;;
21354;SDS011;10835;50.148;19.760;2023-01-01T04:26:28;2.42;;;1.90;;
21354;SDS011;10835;50.148;19.760;2023-01-01T04:28:56;2.92;;;2.22;;
21354;SDS011;10835;50.148;19.760;2023-01-01T04:31:23;3.80;;;2.63;;
21354;SDS011;10835;50.148;19.760;2023-01-01T04:33:52;4.22;;;2.22;;
21354;SDS011;10835;50.148;19.760;2023-01-01T04:36:21;4.80;;;2.13;;
21354;SDS011;10835;50.148;19.760;2023-01-01T04:38:49;5.15;;;2.13;;
21354;SDS011;10835;50.148;19.760;2023-01-01T04:41:17;3.90;;;2.17;;
21354;SDS011;10835;50.148;19.760;2023-01-01T04:43:45;5.03;;;2.88;;
21354;SDS011;10835;50.148;19.760;2023-01-01T04:46:15;4.03;;;2.70;;
21354;SDS011;10835;50.148;19.760;2023-01-01T04:48:44;4.25;;;2.75;;
21354;SDS011;10835;50.148;19.760;2023-01-01T04:51:13;3.55;;;2.35;;
21354;SDS011;10835;50.148;19.760;2023-01-01T04:53:44;7.13;;;3.60;;
21354;SDS011;10835;50.148;19.760;2023-01-01T04:56:13;5.25;;;3.08;;
21354;SDS011;10835;50.148;19.760;2023-01-01T04:58:42;6.28;;;4.03;;
21354;SDS011;10835;50.148;19.760;2023-01-01T05:01:14;6.82;;;4.32;;
21354;SDS011;10835;50.148;19.760;2023-01-01T05:03:44;7.10;;;3.90;;
21354;SDS011;10835;50.148;19.760;2023-01-01T05:06:12;5.53;;;3.50;;
21354;SDS011;10835;50.148;19.760;2023-01-01T05:08:43;6.00;;;3.72;;
21354;SDS011;10835;50.148;19.760;2023-01-01T05:11:14;6.15;;;2.90;;
21354;SDS011;10835;50.148;19.760;2023-01-01T05:13:44;6.63;;;3.33;;
21354;SDS011;10835;50.148;19.760;2023-01-01T05:16:14;3.03;;;2.35;;
21354;SDS011;10835;50.148;19.760;2023-01-01T05:18:43;7.05;;;2.60;;
21354;SDS011;10835;50.148;19.760;2023-01-01T05:21:12;3.20;;;2.13;;
21354;SDS011;10835;50.148;19.760;2023-01-01T05:23:42;7.70;;;3.83;;
21354;SDS011;10835;50.148;19.760;2023-01-01T05:26:12;3.95;;;2.70;;
21354;SDS011;10835;50.148;19.760;2023-01-01T05:28:41;6.75;;;4.03;;
21354;SDS011;10835;50.148;19.760;2023-01-01T05:31:10;7.43;;;4.10;;
21354;SDS011;10835;50.148;19.760;2023-01-01T05:33:40;8.05;;;4.25;;
21354;SDS011;10835;50.148;19.760;2023-01-01T05:36:09;3.67;;;2.35;;
21354;SDS011;10835;50.148;19.760;2023-01-01T05:38:41;6.50;;;3.05;;
21354;SDS011;10835;50.148;19.760;2023-01-01T05:41:12;4.47;;;2.60;;
21354;SDS011;10835;50.148;19.760;2023-01-01T05:43:42;5.53;;;2.97;;
21354;SDS011;10835;50.148;19.760;2023-01-01T05:46:11;8.25;;;3.55;;
21354;SDS011;10835;50.148;19.760;2023-01-01T05:48:41;5.97;;;3.53;;
21354;SDS011;10835;50.148;19.760;2023-01-01T05:51:10;4.63;;;3.25;;
21354;SDS011;10835;50.148;19.760;2023-01-01T05:53:39;4.28;;;2.80;;
21354;SDS011;10835;50.148;19.760;2023-01-01T05:56:07;4.10;;;2.63;;
21354;SDS011;10835;50.148;19.760;2023-01-01T05:58:37;4.47;;;2.53;;
21354;SDS011;10835;50.148;19.760;2023-01-01T06:01:06;3.22;;;2.08;;
21354;SDS011;10835;50.148;19.760;2023-01-01T06:03:35;2.42;;;1.52;;
21354;SDS011;10835;50.148;19.760;2023-01-01T06:06:04;2.15;;;1.55;;
21354;SDS011;10835;50.148;19.760;2023-01-01T06:08:32;7.75;;;2.55;;
21354;SDS011;10835;50.148;19.760;2023-01-01T06:11:02;5.28;;;2.97;;
21354;SDS011;10835;50.148;19.760;2023-01-01T06:13:31;6.93;;;3.90;;
21354;SDS011;10835;50.148;19.760;2023-01-01T06:16:01;5.00;;;3.30;;
21354;SDS011;10835;50.148;19.760;2023-01-01T06:18:33;8.48;;;4.00;;
21354;SDS011;10835;50.148;19.760;2023-01-01T06:21:02;7.22;;;3.60;;
21354;SDS011;10835;50.148;19.760;2023-01-01T06:23:31;10.07;;;5.20;;
21354;SDS011;10835;50.148;19.760;2023-01-01T06:26:04;10.02;;;4.00;;
21354;SDS011;10835;50.148;19.760;2023-01-01T06:28:33;6.18;;;3.38;;
21354;SDS011;10835;50.148;19.760;2023-01-01T06:31:02;2.58;;;1.27;;
21354;SDS011;10835;50.148;19.760;2023-01-01T06:33:32;3.40;;;2.15;;
21354;SDS011;10835;50.148;19.760;2023-01-01T06:36:00;6.78;;;3.88;;
21354;SDS011;10835;50.148;19.760;2023-01-01T06:38:30;5.80;;;3.97;;
21354;SDS011;10835;50.148;19.760;2023-01-01T06:40:59;11.25;;;6.40;;
21354;SDS011;10835;50.148;19.760;2023-01-01T06:43:28;13.15;;;6.60;;
21354;SDS011;10835;50.148;19.760;2023-01-01T06:45:58;11.32;;;5.95;;
21354;SDS011;10835;50.148;19.760;2023-01-01T06:48:32;10.02;;;5.28;;
21354;SDS011;10835;50.148;19.760;2023-01-01T06:51:04;8.50;;;4.72;;
21354;SDS011;10835;50.148;19.760;2023-01-01T06:53:34;6.63;;;3.75;;
21354;SDS011;10835;50.148;19.760;2023-01-01T06:56:02;7.50;;;3.08;;
21354;SDS011;10835;50.148;19.760;2023-01-01T06:58:30;7.15;;;3.83;;
21354;SDS011;10835;50.148;19.760;2023-01-01T07:01:03;7.32;;;3.97;;
21354;SDS011;10835;50.148;19.760;2023-01-01T07:03:34;4.93;;;3.50;;
21354;SDS011;10835;50.148;19.760;2023-01-01T07:06:02;5.60;;;3.53;;
21354;SDS011;10835;50.148;19.760;2023-01-01T07:08:30;4.30;;;2.88;;
21354;SDS011;10835;50.148;19.760;2023-01-01T07:10:59;5.90;;;3.08;;
21354;SDS011;10835;50.148;19.760;2023-01-01T07:13:28;5.68;;;3.13;;
21354;SDS011;10835;50.148;19.760;2023-01-01T07:15:58;6.38;;;3.17;;
21354;SDS011;10835;50.148;19.760;2023-01-01T07:18:27;7.88;;;3.13;;
21354;SDS011;10835;50.148;19.760;2023-01-01T07:20:55;4.45;;;2.38;;
21354;SDS011;10835;50.148;19.760;2023-01-01T07:23:26;5.55;;;2.78;;
21354;SDS011;10835;50.148;19.760;2023-01-01T07:25:55;7.03;;;3.35;;
21354;SDS011;10835;50.148;19.760;2023-01-01T07:28:23;5.97;;;3.00;;
21354;SDS011;10835;50.148;19.760;2023-01-01T07:30:52;5.18;;;2.85;;
21354;SDS011;10835;50.148;19.760;2023-01-01T07:33:21;5.10;;;2.70;;
21354;SDS011;10835;50.148;19.760;2023-01-01T07:35:51;5.22;;;3.50;;
21354;SDS011;10835;50.148;19.760;2023-01-01T07:38:22;4.28;;;2.55;;
21354;SDS011;10835;50.148;19.760;2023-01-01T07:40:50;6.07;;;3.80;;
21354;SDS011;10835;50.148;19.760;2023-01-01T07:43:18;6.03;;;3.55;;
21354;SDS011;10835;50.148;19.760;2023-01-01T07:45:46;9.00;;;4.32;;
21354;SDS011;10835;50.148;19.760;2023-01-01T07:48:14;6.93;;;4.15;;
21354;SDS011;10835;50.148;19.760;2023-01-01T07:50:45;7.22;;;4.43;;
21354;SDS011;10835;50.148;19.760;2023-01-01T07:53:14;11.02;;;6.00;;
21354;SDS011;10835;50.148;19.760;2023-01-01T07:55:42;17.95;;;8.52;;
21354;SDS011;10835;50.148;19.760;2023-01-01T07:58:11;17.85;;;8.68;;
21354;SDS011;10835;50.148;19.760;2023-01-01T08:00:39;17.27;;;8.40;;
21354;SDS011;10835;50.148;19.760;2023-01-01T08:03:11;15.48;;;8.48;;
21354;SDS011;10835;50.148;19.760;2023-01-01T08:05:39;16.77;;;8.05;;
21354;SDS011;10835;50.148;19.760;2023-01-01T08:08:07;11.80;;;7.60;;
21354;SDS011;10835;50.148;19.760;2023-01-01T08:10:37;16.98;;;8.02;;
21354;SDS011;10835;50.148;19.760;2023-01-01T08:13:06;19.95;;;9.25;;
21354;SDS011;10835;50.148;19.760;2023-01-01T08:15:35;23.55;;;10.45;;
21354;SDS011;10835;50.148;19.760;2023-01-01T08:18:03;24.80;;;8.95;;
21354;SDS011;10835;50.148;19.760;2023-01-01T08:20:32;22.23;;;10.38;;
21354;SDS011;10835;50.148;19.760;2023-01-01T08:23:00;25.10;;;10.15;;
21354;SDS011;10835;50.148;19.760;2023-01-01T08:25:33;27.25;;;13.05;;
21354;SDS011;10835;50.148;19.760;2023-01-01T08:28:05;26.05;;;13.18;;
21354;SDS011;10835;50.148;19.760;2023-01-01T08:30:33;16.45;;;9.68;;
21354;SDS011;10835;50.148;19.760;2023-01-01T08:33:01;16.38;;;8.57;;
21354;SDS011;10835;50.148;19.760;2023-01-01T08:35:29;13.57;;;8.40;;
21354;SDS011;10835;50.148;19.760;2023-01-01T08:37:57;12.15;;;7.32;;
21354;SDS011;10835;50.148;19.760;2023-01-01T08:40:27;15.45;;;8.55;;
21354;SDS011;10835;50.148;19.760;2023-01-01T08:42:55;12.75;;;7.53;;
21354;SDS011;10835;50.148;19.760;2023-01-01T08:45:24;16.63;;;8.00;;
21354;SDS011;10835;50.148;19.760;2023-01-01T08:47:52;12.75;;;6.32;;
21354;SDS011;10835;50.148;19.760;2023-01-01T08:50:21;14.35;;;7.25;;
21354;SDS011;10835;50.148;19.760;2023-01-01T08:52:49;14.75;;;7.32;;
21354;SDS011;10835;50.148;19.760;2023-01-01T08:55:17;14.70;;;7.63;;
21354;SDS011;10835;50.148;19.760;2023-01-01T08:57:45;10.68;;;6.20;;
21354;SDS011;10835;50.148;19.760;2023-01-01T09:00:14;13.40;;;6.43;;
21354;SDS011;10835;50.148;19.760;2023-01-01T09:02:43;11.48;;;6.78;;
21354;SDS011;10835;50.148;19.760;2023-01-01T09:05:14;13.93;;;7.18;;
21354;SDS011;10835;50.148;19.760;2023-01-01T09:07:42;13.25;;;7.60;;
21354;SDS011;10835;50.148;19.760;2023-01-01T09:10:10;13.30;;;8.23;;
21354;SDS011;10835;50.148;19.760;2023-01-01T09:12:38;13.55;;;7.40;;
21354;SDS011;10835;50.148;19.760;2023-01-01T09:15:08;13.15;;;7.32;;
21354;SDS011;10835;50.148;19.760;2023-01-01T09:17:40;14.88;;;6.85;;
21354;SDS011;10835;50.148;19.760;2023-01-01T09:20:09;13.85;;;6.82;;
21354;SDS011;10835;50.148;19.760;2023-01-01T09:22:37;14.15;;;7.78;;
21354;SDS011;10835;50.148;19.760;2023-01-01T09:25:05;16.92;;;7.78;;
21354;SDS011;10835;50.148;19.760;2023-01-01T09:27:34;13.18;;;7.00;;
21354;SDS011;10835;50.148;19.760;2023-01-01T09:30:02;10.75;;;6.88;;
21354;SDS011;10835;50.148;19.760;2023-01-01T09:32:33;13.93;;;7.50;;
21354;SDS011;10835;50.148;19.760;2023-01-01T09:35:01;12.85;;;7.18;;
21354;SDS011;10835;50.148;19.760;2023-01-01T09:37:30;15.45;;;7.45;;
21354;SDS011;10835;50.148;19.760;2023-01-01T09:39:59;16.63;;;8.15;;
21354;SDS011;10835;50.148;19.760;2023-01-01T09:42:32;16.13;;;7.57;;
21354;SDS011;10835;50.148;19.760;2023-01-01T09:45:17;13.93;;;7.50;;
21354;SDS011;10835;50.148;19.760;2023-01-01T09:47:50;15.25;;;8.00;;
21354;SDS011;10835;50.148;19.760;2023-01-01T09:50:22;16.58;;;7.20;;
21354;SDS011;10835;50.148;19.760;2023-01-01T09:52:56;16.23;;;7.75;;
21354;SDS011;10835;50.148;19.760;2023-01-01T09:55:27;11.15;;;6.68;;
21354;SDS011;10835;50.148;19.760;2023-01-01T09:57:56;13.30;;;6.75;;
21354;SDS011;10835;50.148;19.760;2023-01-01T10:00:26;16.83;;;8.25;;
21354;SDS011;10835;50.148;19.760;2023-01-01T10:03:06;12.50;;;7.00;;
21354;SDS011;10835;50.148;19.760;2023-01-01T10:05:48;10.25;;;5.55;;
21354;SDS011;10835;50.148;19.760;2023-01-01T10:08:29;11.80;;;6.38;;
21354;SDS011;10835;50.148;19.760;2023-01-01T10:11:12;11.65;;;5.80;;
21354;SDS011;10835;50.148;19.760;2023-01-01T10:13:46;9.38;;;5.50;;
21354;SDS011;10835;50.148;19.760;2023-01-01T10:16:20;12.00;;;5.00;;
21354;SDS011;10835;50.148;19.760;2023-01-01T10:18:56;9.13;;;4.53;;
21354;SDS011;10835;50.148;19.760;2023-01-01T10:21:29;6.88;;;4.40;;
21354;SDS011;10835;50.148;19.760;2023-01-01T10:24:02;6.75;;;4.30;;
21354;SDS011;10835;50.148;19.760;2023-01-01T10:26:32;7.68;;;4.22;;
21354;SDS011;10835;50.148;19.760;2023-01-01T10:29:04;10.90;;;3.92;;
21354;SDS011;10835;50.148;19.760;2023-01-01T10:31:40;9.15;;;4.65;;
21354;SDS011;10835;50.148;19.760;2023-01-01T10:34:12;8.73;;;4.60;;
21354;SDS011;10835;50.148;19.760;2023-01-01T10:36:42;5.85;;;4.03;;
21354;SDS011;10835;50.148;19.760;2023-01-01T10:41:42;9.70;;;4.65;;
21354;SDS011;10835;50.148;19.760;2023-01-01T10:44:11;7.32;;;4.18;;
21354;SDS011;10835;50.148;19.760;2023-01-01T10:46:42;9.13;;;4.88;;
21354;SDS011;10835;50.148;19.760;2023-01-01T10:49:13;8.38;;;4.72;;
21354;SDS011;10835;50.148;19.760;2023-01-01T10:51:42;7.55;;;4.47;;
21354;SDS011;10835;50.148;19.760;2023-01-01T10:54:30;7.82;;;4.50;;
21354;SDS011;10835;50.148;19.760;2023-01-01T10:57:02;6.30;;;4.13;;
21354;SDS011;10835;50.148;19.760;2023-01-01T10:59:41;7.53;;;4.03;;
21354;SDS011;10835;50.148;19.760;2023-01-01T11:02:20;8.85;;;4.55;;
21354;SDS011;10835;50.148;19.760;2023-01-01T11:04:49;6.90;;;4.10;;
21354;SDS011;10835;50.148;19.760;2023-01-01T11:07:23;7.15;;;4.30;;
21354;SDS011;10835;50.148;19.760;2023-01-01T11:09:58;8.35;;;4.88;;
21354;SDS011;10835;50.148;19.760;2023-01-01T11:12:32;9.80;;;4.32;;
21354;SDS011;10835;50.148;19.760;2023-01-01T11:15:22;8.20;;;4.10;;
21354;SDS011;10835;50.148;19.760;2023-01-01T11:18:03;7.43;;;4.38;;
21354;SDS011;10835;50.148;19.760;2023-01-01T11:20:33;9.85;;;5.13;;
21354;SDS011;10835;50.148;19.760;2023-01-01T11:23:15;7.90;;;4.88;;
21354;SDS011;10835;50.148;19.760;2023-01-01T11:25:57;8.57;;;4.90;;
21354;SDS011;10835;50.148;19.760;2023-01-01T11:28:28;8.80;;;5.18;;
21354;SDS011;10835;50.148;19.760;2023-01-01T11:31:04;8.63;;;4.85;;
21354;SDS011;10835;50.148;19.760;2023-01-01T11:33:38;7.72;;;5.00;;
21354;SDS011;10835;50.148;19.760;2023-01-01T11:36:10;8.60;;;4.95;;
21354;SDS011;10835;50.148;19.760;2023-01-01T11:38:48;8.73;;;5.03;;
21354;SDS011;10835;50.148;19.760;2023-01-01T11:41:19;10.23;;;4.72;;
21354;SDS011;10835;50.148;19.760;2023-01-01T11:43:50;7.78;;;5.05;;
21354;SDS011;10835;50.148;19.760;2023-01-01T11:46:22;7.80;;;4.80;;
21354;SDS011;10835;50.148;19.760;2023-01-01T11:48:50;8.63;;;4.85;;
21354;SDS011;10835;50.148;19.760;2023-01-01T11:51:27;7.00;;;4.65;;
21354;SDS011;10835;50.148;19.760;2023-01-01T11:54:07;9.88;;;5.40;;
21354;SDS011;10835;50.148;19.760;2023-01-01T11:56:51;9.55;;;5.43;;
21354;SDS011;10835;50.148;19.760;2023-01-01T11:59:22;9.20;;;4.93;;
21354;SDS011;10835;50.148;19.760;2023-01-01T12:01:56;9.25;;;5.03;;
21354;SDS011;10835;50.148;19.760;2023-01-01T12:04:27;8.48;;;4.88;;
21354;SDS011;10835;50.148;19.760;2023-01-01T12:07:03;9.40;;;5.03;;
21354;SDS011;10835;50.148;19.760;2023-01-01T12:09:34;8.45;;;4.90;;
21354;SDS011;10835;50.148;19.760;2023-01-01T12:12:11;12.27;;;5.47;;
21354;SDS011;10835;50.148;19.760;2023-01-01T12:14:46;7.35;;;4.63;;
21354;SDS011;10835;50.148;19.760;2023-01-01T12:17:20;12.85;;;4.78;;
21354;SDS011;10835;50.148;19.760;2023-01-01T12:19:54;6.82;;;4.15;;
21354;SDS011;10835;50.148;19.760;2023-01-01T12:22:26;6.97;;;4.28;;
21354;SDS011;10835;50.148;19.760;2023-01-01T12:24:55;8.00;;;4.05;;
21354;SDS011;10835;50.148;19.760;2023-01-01T12:27:29;6.20;;;4.25;;
21354;SDS011;10835;50.148;19.760;2023-01-01T12:30:14;7.20;;;3.90;;
21354;SDS011;10835;50.148;19.760;2023-01-01T12:32:54;5.88;;;3.72;;
21354;SDS011;10835;50.148;19.760;2023-01-01T12:35:48;6.53;;;3.70;;
21354;SDS011;10835;50.148;19.760;2023-01-01T12:38:28;8.55;;;4.82;;
21354;SDS011;10835;50.148;19.760;2023-01-01T12:41:21;6.45;;;4.28;;
21354;SDS011;10835;50.148;19.760;2023-01-01T12:44:01;5.95;;;3.85;;
21354;SDS011;10835;50.148;19.760;2023-01-01T12:46:43;8.13;;;4.50;;
21354;SDS011;10835;50.148;19.760;2023-01-01T12:49:19;6.30;;;3.55;;
21354;SDS011;10835;50.148;19.760;2023-01-01T12:52:01;6.32;;;4.05;;
21354;SDS011;10835;50.148;19.760;2023-01-01T12:57:47;5.88;;;3.88;;
21354;SDS011;10835;50.148;19.760;2023-01-01T13:00:19;8.27;;;3.92;;
21354;SDS011;10835;50.148;19.760;2023-01-01T13:02:47;7.45;;;4.47;;
21354;SDS011;10835;50.148;19.760;2023-01-01T13:05:19;7.65;;;4.47;;
21354;SDS011;10835;50.148;19.760;2023-01-01T13:07:50;7.90;;;4.78;;
21354;SDS011;10835;50.148;19.760;2023-01-01T13:10:25;9.18;;;5.18;;
21354;SDS011;10835;50.148;19.760;2023-01-01T13:12:59;8.70;;;5.20;;
21354;SDS011;10835;50.148;19.760;2023-01-01T13:15:46;8.40;;;4.40;;
21354;SDS011;10835;50.148;19.760;2023-01-01T13:18:17;7.60;;;4.93;;
21354;SDS011;10835;50.148;19.760;2023-01-01T13:20:53;7.75;;;3.97;;
21354;SDS011;10835;50.148;19.760;2023-01-01T13:29:30;9.65;;;5.38;;
21354;SDS011;10835;50.148;19.760;2023-01-01T13:32:01;9.55;;;5.00;;
21354;SDS011;10835;50.148;19.760;2023-01-01T13:34:33;8.20;;;4.28;;
21354;SDS011;10835;50.148;19.760;2023-01-01T13:37:27;7.47;;;4.60;;
21354;SDS011;10835;50.148;19.760;2023-01-01T13:43:13;8.43;;;4.70;;
21354;SDS011;10835;50.148;19.760;2023-01-01T13:45:51;6.47;;;3.95;;
21354;SDS011;10835;50.148;19.760;2023-01-01T13:51:53;8.27;;;4.53;;
21354;SDS011;10835;50.148;19.760;2023-01-01T13:54:50;8.68;;;3.90;;
21354;SDS011;10835;50.148;19.760;2023-01-01T13:57:51;7.93;;;4.18;;
21354;SDS011;10835;50.148;19.760;2023-01-01T14:00:34;7.43;;;4.82;;
21354;SDS011;10835;50.148;19.760;2023-01-01T14:03:15;9.18;;;5.25;;
21354;SDS011;10835;50.148;19.760;2023-01-01T14:05:44;10.80;;;5.05;;
21354;SDS011;10835;50.148;19.760;2023-01-01T14:08:29;9.02;;;5.40;;
21354;SDS011;10835;50.148;19.760;2023-01-01T14:11:01;11.55;;;5.35;;
21354;SDS011;10835;50.148;19.760;2023-01-01T14:13:46;15.35;;;7.85;;
21354;SDS011;10835;50.148;19.760;2023-01-01T14:16:14;14.93;;;8.88;;
21354;SDS011;10835;50.148;19.760;2023-01-01T14:18:43;13.85;;;8.10;;
21354;SDS011;10835;50.148;19.760;2023-01-01T14:21:13;15.32;;;6.53;;
21354;SDS011;10835;50.148;19.760;2023-01-01T14:23:47;11.52;;;6.20;;
21354;SDS011;10835;50.148;19.760;2023-01-01T14:26:17;12.98;;;6.00;;
21354;SDS011;10835;50.148;19.760;2023-01-01T14:28:47;14.60;;;6.18;;
21354;SDS011;10835;50.148;19.760;2023-01-01T14:31:19;10.27;;;6.07;;
21354;SDS011;10835;50.148;19.760;2023-01-01T14:33:50;12.55;;;6.63;;
21354;SDS011;10835;50.148;19.760;2023-01-01T14:36:20;8.35;;;5.82;;
21354;SDS011;10835;50.148;19.760;2023-01-01T14:38:51;10.95;;;5.70;;
21354;SDS011;10835;50.148;19.760;2023-01-01T14:41:22;8.88;;;5.10;;
21354;SDS011;10835;50.148;19.760;2023-01-01T14:43:55;8.23;;;4.55;;
21354;SDS011;10835;50.148;19.760;2023-01-01T14:46:29;9.50;;;4.63;;
21354;SDS011;10835;50.148;19.760;2023-01-01T14:49:02;17.63;;;8.05;;
21354;SDS011;10835;50.148;19.760;2023-01-01T14:51:35;23.58;;;9.48;;
21354;SDS011;10835;50.148;19.760;2023-01-01T14:54:12;17.23;;;7.53;;
21354;SDS011;10835;50.148;19.760;2023-01-01T14:56:45;10.77;;;5.45;;
21354;SDS011;10835;50.148;19.760;2023-01-01T14:59:17;15.65;;;6.15;;
21354;SDS011;10835;50.148;19.760;2023-01-01T15:01:57;11.90;;;4.18;;
21354;SDS011;10835;50.148;19.760;2023-01-01T15:04:29;7.50;;;4.00;;
21354;SDS011;10835;50.148;19.760;2023-01-01T15:06:57;7.43;;;3.45;;
21354;SDS011;10835;50.148;19.760;2023-01-01T15:09:28;5.70;;;2.40;;
21354;SDS011;10835;50.148;19.760;2023-01-01T15:11:57;6.60;;;2.88;;
21354;SDS011;10835;50.148;19.760;2023-01-01T15:14:29;7.10;;;3.40;;
21354;SDS011;10835;50.148;19.760;2023-01-01T15:16:59;6.85;;;3.80;;